Latest Weather Observations for Murrurundi Gap

IDN60801

Issued at 11:33 am EST Sunday 31 July 2016 (issued every 30 minutes, with the page automatically refreshed every 10 minutes)

About weather observations | Map of weather stations | Latest weather observations for NSW | Other Formats
Station Details ID: 061392 Name: MURRURUNDI GAP AWS Lat: -31.74 Lon: 150.79 Height: 729.4 m
Data from the previous 72 hours. | See also: Recent months at Murrurundi Gap
Date/Time
EST
Temp
°C
App
Temp
°C
Dew
Point
°C
Rel
Hum
%
Delta-T
°C
Wind Press
QNH
hPa
Press
MSL
hPa
Rain since
9am
mm
Dir  Spd
km/h
Gust
km/h
Spd
kts
Gust
kts
31/11:30am 11.1 4.9 6.0 71 2.5 NNW 28 37 15 20 1020.0 1020.3 0.0
31/11:00am 10.5 3.9 5.9 73 2.2 NNW 30 37 16 20 1020.3 1020.5 0.0
31/10:30am 10.7 4.9 6.1 73 2.2 NNW 26 33 14 18 1020.6 1020.9 0.0
31/10:00am 10.0 3.9 5.0 71 2.3 NW 26 37 14 20 1020.6 1020.9 0.0
31/09:30am 9.8 2.9 4.4 69 2.5 NNW 30 33 16 18 1020.4 1020.6 0.0
31/09:00am 9.3 2.3 4.3 71 2.3 NNW 30 33 16 18 1020.4 1020.6 0.0
31/08:30am 8.7 1.6 3.7 71 2.3 NNW 30 33 16 18 1020.3 1020.5 0.0
31/08:00am 7.4 0.6 3.3 75 1.8 NNW 28 32 15 17 1020.2 1020.4 0.0
31/07:30am 6.0 -0.3 3.7 85 1.0 NNW 26 28 14 15 1019.8 1020.1 0.0
31/07:00am 4.9 -1.1 3.1 88 0.8 NW 24 28 13 15 1019.8 1020.1 0.0
31/06:30am 6.6 0.6 3.4 80 1.4 NNW 24 28 13 15 1019.3 1019.5 0.0
31/06:00am 5.9 0.0 3.7 86 1.0 NNW 24 28 13 15 1019.3 1019.5 0.0
31/05:30am 5.1 -0.8 3.8 91 0.6 NNW 24 26 13 14 1019.1 1019.3 0.0
31/05:00am 5.7 -0.2 3.9 88 0.8 NNW 24 28 13 15 1018.9 1019.1 0.0
31/04:30am 5.8 -0.5 4.0 88 0.8 NNW 26 30 14 16 1018.9 1019.1 0.0
31/04:00am 5.5 -0.7 4.2 91 0.6 NNW 26 28 14 15 1019.1 1019.3 0.0
31/03:30am 6.0 0.2 4.2 88 0.8 NNW 24 28 13 15 1018.9 1019.1 0.0
31/03:00am 6.2 1.2 4.5 89 0.8 NNW 20 22 11 12 1019.1 1019.3 0.0
31/02:30am 6.7 0.5 4.5 86 1.0 NNW 26 28 14 15 1018.9 1019.1 0.0
31/02:00am 6.8 1.8 4.8 87 0.9 NNW 20 24 11 13 1019.3 1019.5 0.0
31/01:30am 7.0 1.6 4.5 84 1.1 NNW 22 28 12 15 1019.4 1019.7 0.0
31/01:00am 7.4 2.0 4.5 82 1.3 NNW 22 26 12 14 1019.4 1019.7 0.0
31/12:30am 8.2 2.9 4.8 79 1.6 NNW 22 24 12 13 1019.6 1019.9 0.0
31/12:00am 8.3 3.3 4.7 78 1.7 NNW 20 22 11 12 1019.9 1020.2 0.0
 
Date/Time
EST
Temp
°C
App
Temp
°C
Dew
Point
°C
Rel
Hum
%
Delta-T
°C
Wind Press
QNH
hPa
Press
MSL
hPa
Rain since
9am
mm
Dir  Spd
km/h
Gust
km/h
Spd
kts
Gust
kts
30/11:30pm 9.2 5.1 4.6 73 2.1 NNW 15 17 8 9 1020.3 1020.5 0.0
30/11:00pm 9.6 6.7 4.6 71 2.3 NNW 9 11 5 6 1020.5 1020.7 0.0
30/10:30pm 9.1 6.6 4.9 75 2.0 N 7 9 4 5 1020.8 1021.1 0.0
30/10:00pm 9.3 6.5 5.3 76 1.9 NW 9 11 5 6 1020.9 1021.2 0.0
30/09:30pm 9.3 6.5 5.1 75 2.0 NW 9 9 5 5 1020.7 1021.0 0.0
30/09:00pm 9.5 7.2 5.7 77 1.8 WNW 7 9 4 5 1020.6 1020.9 0.0
30/08:30pm 9.5 8.5 5.5 76 1.9 CALM 0 0 0 0 1020.6 1020.9 0.0
30/08:00pm 9.4 8.0 5.6 77 1.8 SSE 2 6 1 3 1020.6 1020.9 0.0
30/07:30pm 9.3 7.0 5.9 79 1.6 SE 7 11 4 6 1020.5 1020.7 0.0
30/07:00pm 9.1 6.5 6.0 81 1.5 SE 9 9 5 5 1020.4 1020.6 0.0
30/06:30pm 9.1 6.1 5.8 80 1.6 SE 11 13 6 7 1020.3 1020.5 0.0
30/06:00pm 9.8 6.8 6.0 77 1.8 SE 11 13 6 7 1020.2 1020.4 0.0
30/05:30pm 10.6 7.2 5.8 72 2.3 S 13 17 7 9 1019.9 1020.2 0.0
30/05:00pm 11.2 7.8 5.9 70 2.6 S 13 17 7 9 1019.8 1020.1 0.0
30/04:30pm 12.1 9.4 5.7 65 3.1 S 9 13 5 7 1019.7 1020.0 0.0
30/04:00pm 13.9 11.2 5.8 58 4.0 NW 9 13 5 7 1019.8 1020.1 0.0
30/03:30pm 13.8 10.8 5.9 59 3.9 NNW 11 15 6 8 1019.6 1019.9 0.0
30/03:00pm 14.3 10.8 7.1 62 3.7 NW 15 20 8 11 1019.8 1020.1 0.0
30/02:30pm 13.8 10.0 5.9 59 3.9 NNW 15 19 8 10 1019.9 1020.2 0.0
30/02:00pm 13.9 10.5 6.0 59 3.9 N 13 19 7 10 1019.8 1020.1 0.0
30/01:30pm 14.0 11.7 5.6 57 4.1 NNW 7 19 4 10 1020.0 1020.3 0.0
30/01:00pm 13.9 11.4 3.7 50 4.8 E 6 9 3 5 1020.4 1020.6 0.0
30/12:30pm 12.5 9.4 3.5 54 4.2 SE 9 15 5 8 1020.8 1021.1 0.0
30/12:00pm 11.6 7.9 4.6 62 3.3 ESE 13 19 7 10 1021.1 1021.4 0.0
30/11:30am 10.7 6.2 4.2 64 3.0 SE 17 22 9 12 1021.4 1021.7 0.0
30/11:00am 9.2 4.3 4.0 70 2.4 SE 19 24 10 13 1021.9 1022.2 0.0
30/10:30am 8.2 4.2 4.8 79 1.6 SE 15 19 8 10 1022.3 1022.6 0.0
30/10:00am 6.5 1.0 3.8 83 1.2 SE 22 26 12 14 1022.2 1022.5 0.0
30/09:30am 5.7 -0.1 4.5 92 0.5 SE 24 30 13 16 1022.3 1022.6 0.0
30/09:00am 4.8 -0.9 4.7 99 0.0 SE 24 28 13 15 1022.2 1022.5 0.0
30/08:34am 3.5 -2.1 3.4 99 0.0 SE 22 26 12 14 1022.4 1022.7 0.0
30/08:30am 3.6 -1.6 3.5 99 0.0 SE 20 24 11 13 1022.4 1022.7 0.0
30/08:00am 2.8 -2.4 2.7 99 0.0 SE 19 24 10 13 1022.2 1022.5 0.0
30/07:57am 2.9 -2.2 2.8 99 0.0 SE 19 24 10 13 1022.2 1022.5 0.0
30/07:49am 2.8 -2.4 2.7 99 0.0 SE 19 24 10 13 1022.2 1022.5 0.0
30/07:30am 2.3 -3.5 2.2 99 0.0 SE 22 24 12 13 1022.3 1022.6 0.0
30/07:00am 1.9 -3.4 1.8 99 0.0 SE 19 22 10 12 1022.0 1022.3 0.0
30/06:30am 1.8 -3.1 1.7 99 0.0 SSE 17 20 9 11 1022.0 1022.3 0.0
30/06:00am 1.8 -3.1 1.7 99 0.0 SSE 17 20 9 11 1021.8 1022.1 0.0
30/05:50am 2.2 -2.7 2.1 99 0.0 SSE 17 20 9 11 1021.7 1021.9 0.0
30/05:30am 2.4 -2.5 2.3 99 0.0 SSE 17 17 9 9 1021.4 1021.7 0.0
30/05:00am 2.4 -2.1 2.3 99 0.0 SE 15 15 8 8 1021.4 1021.7 0.0
30/04:58am 2.3 -2.2 2.2 99 0.0 SE 15 15 8 8 1021.4 1021.7 0.0
30/04:30am 2.1 -2.4 2.0 99 0.0 SE 15 17 8 9 1021.1 1021.4 0.0
30/04:00am 3.4 0.1 2.7 95 0.3 SSE 9 13 5 7 1021.1 1021.4 0.0
30/03:30am 3.5 -0.1 3.1 97 0.2 SE 11 15 6 8 1021.1 1021.4 0.0
30/03:00am 3.6 0.0 3.2 97 0.2 SE 11 13 6 7 1021.3 1021.6 0.0
30/02:30am 3.0 -0.3 2.3 95 0.3 SE 9 11 5 6 1021.7 1021.9 0.0
30/02:00am 4.4 0.4 2.9 90 0.6 NW 13 15 7 8 1021.3 1021.6 0.0
30/01:30am 4.1 -0.3 2.6 90 0.6 NW 15 17 8 9 1021.5 1021.8 0.0
30/01:00am 5.1 0.0 3.3 88 0.8 NNW 19 20 10 11 1021.7 1021.9 0.0
30/12:30am 5.1 0.4 3.3 88 0.8 NNW 17 20 9 11 1021.9 1022.2 0.0
30/12:00am 6.1 2.6 3.3 82 1.2 NW 11 13 6 7 1022.2 1022.5 0.0
 
Date/Time
EST
Temp
°C
App
Temp
°C
Dew
Point
°C
Rel
Hum
%
Delta-T
°C
Wind Press
QNH
hPa
Press
MSL
hPa
Rain since
9am
mm
Dir  Spd
km/h
Gust
km/h
Spd
kts
Gust
kts
29/11:30pm 6.2 2.6 3.0 80 1.4 NNW 11 13 6 7 1022.4 1022.7 0.0
29/11:00pm 6.2 1.9 3.0 80 1.4 NW 15 19 8 10 1022.1 1022.4 0.0
29/10:30pm 6.4 1.7 2.9 78 1.5 NW 17 17 9 9 1022.0 1022.3 0.0
29/10:00pm 5.9 0.1 2.5 79 1.5 NW 22 26 12 14 1021.8 1022.1 0.0
29/09:30pm 6.3 0.6 2.6 77 1.6 NW 22 24 12 13 1021.9 1022.2 0.0
29/09:00pm 6.6 1.3 3.0 78 1.6 NW 20 24 11 13 1021.9 1022.2 0.0
29/08:30pm 6.2 -0.2 3.0 80 1.4 NNW 26 30 14 16 1021.7 1021.9 0.0
29/08:00pm 7.0 1.0 3.1 76 1.7 NW 24 28 13 15 1021.7 1021.9 0.0
29/07:30pm 7.0 1.0 3.3 77 1.6 NNW 24 28 13 15 1021.5 1021.8 0.0
29/07:00pm 7.4 2.2 3.5 76 1.7 NNW 20 22 11 12 1021.7 1021.9 0.0
29/06:30pm 7.0 1.8 3.6 79 1.5 NNW 20 24 11 13 1021.4 1021.7 0.0
29/06:00pm 7.1 0.8 3.7 79 1.5 NNW 26 28 14 15 1020.8 1021.1 0.0
29/05:30pm 8.2 1.6 4.0 75 1.9 NNW 28 32 15 17 1020.5 1020.7 0.0
29/05:00pm 9.7 3.8 4.1 68 2.6 NW 24 30 13 16 1020.7 1021.0 0.0
29/04:30pm 10.2 3.9 3.5 63 3.1 NW 26 32 14 17 1020.6 1020.9 0.0
29/04:00pm 10.8 4.6 4.3 64 3.0 NW 26 32 14 17 1020.5 1020.7 0.0
29/03:30pm 11.1 3.7 4.1 62 3.3 NNW 32 39 17 21 1020.4 1020.6 0.0
29/03:00pm 11.3 4.4 4.7 64 3.1 NNW 30 39 16 21 1020.4 1020.6 0.0
29/02:30pm 11.1 4.7 5.0 66 2.9 NNW 28 35 15 19 1020.5 1020.7 0.0
29/02:00pm 11.1 4.6 4.8 65 3.0 NNW 28 33 15 18 1020.7 1021.0 0.0
29/01:30pm 10.9 5.4 4.1 63 3.2 NNW 22 32 12 17 1021.1 1021.4 0.0
29/01:00pm 10.3 4.6 4.7 68 2.6 NW 24 32 13 17 1021.4 1021.7 0.0
29/12:30pm 9.7 4.0 4.7 71 2.3 NW 24 32 13 17 1022.0 1022.3 0.0
29/12:00pm 9.9 4.0 5.7 75 2.0 NW 26 32 14 17 1022.5 1022.8 0.0
29/11:30am 9.6 3.2 6.9 83 1.3 NW 30 35 16 19 1022.8 1023.2 0.0
29/11:00am 9.0 3.2 6.3 83 1.3 NNW 26 33 14 18 1023.1 1023.4 0.0
29/10:30am 8.2 2.0 6.0 86 1.0 NW 28 35 15 19 1023.4 1023.7 0.0
29/10:00am 6.8 0.1 5.6 92 0.6 NW 30 35 16 19 1023.6 1023.9 0.0
29/09:30am 6.1 -0.4 4.9 92 0.5 NW 28 35 15 19 1023.6 1023.9 0.0
29/09:00am 5.7 -0.6 5.6 99 0.0 NW 28 33 15 18 1023.5 1023.8 0.0
29/08:38am 5.2 -1.2 5.1 99 0.0 NNW 28 35 15 19 1023.4 1023.7 0.0
29/08:30am 5.0 -1.8 4.9 99 0.0 NW 30 33 16 18 1023.3 1023.6 0.0
29/08:29am 5.0 -1.8 4.9 99 0.0 NW 30 33 16 18 1023.3 1023.6 0.0
29/08:00am 3.5 -4.0 3.4 99 0.0 NW 32 35 17 19 1023.2 1023.5 0.0
29/07:30am 3.5 -4.0 3.4 99 0.0 NNW 32 35 17 19 1023.2 1023.5 0.0
29/07:00am 3.7 -3.8 3.6 99 0.0 NNW 32 39 17 21 1022.8 1023.2 0.0
29/06:30am 3.4 -3.7 3.3 99 0.0 NNW 30 33 16 18 1022.8 1023.2 0.0
29/06:18am 3.3 -3.1 3.2 99 0.0 NNW 26 32 14 17 1022.8 1023.2 0.0
29/06:04am 3.2 -3.6 3.1 99 0.0 NW 28 32 15 17 1022.7 1023.0 0.0
29/06:00am 3.5 -3.2 3.4 99 0.0 NW 28 32 15 17 1022.7 1023.0 0.0
29/05:30am 3.4 -1.8 3.3 99 0.0 NW 20 24 11 13 1022.7 1023.0 0.0
29/05:00am 3.6 -1.6 3.5 99 0.0 NNW 20 22 11 12 1022.6 1022.9 0.0
29/04:30am 3.6 -1.6 3.5 99 0.0 NNW 20 22 11 12 1022.6 1022.9 0.0
29/04:00am 3.9 -0.7 3.6 98 0.1 NNW 17 20 9 11 1022.7 1023.0 0.0
29/03:30am 4.3 1.3 3.9 97 0.2 NW 9 13 5 7 1022.8 1023.2 0.0
29/03:00am 4.7 2.2 3.8 94 0.4 NW 6 7 3 4 1022.9 1023.3 0.0
29/02:30am 5.5 2.5 4.2 91 0.6 NW 9 9 5 5 1022.9 1023.3 0.0
29/02:00am 5.5 3.4 4.0 90 0.7 NW 4 6 2 3 1023.2 1023.5 0.0
29/01:30am 5.8 3.2 4.3 90 0.7 WNW 7 9 4 5 1023.2 1023.5 0.0
29/01:00am 6.2 2.8 3.9 85 1.0 WNW 11 13 6 7 1023.1 1023.4 0.0
29/12:30am 6.6 2.1 4.1 84 1.1 NNW 17 20 9 11 1023.2 1023.5 0.0
29/12:00am 6.4 2.3 4.2 86 1.0 NNW 15 19 8 10 1023.4 1023.7 0.0
 
Date/Time
EST
Temp
°C
App
Temp
°C
Dew
Point
°C
Rel
Hum
%
Delta-T
°C
Wind Press
QNH
hPa
Press
MSL
hPa
Rain since
9am
mm
Dir  Spd
km/h
Gust
km/h
Spd
kts
Gust
kts
28/11:30pm 6.7 2.6 4.2 84 1.1 NNW 15 17 8 9 1023.6 1023.9 0.0
28/11:00pm 6.9 2.0 3.9 81 1.3 NW 19 20 10 11 1023.7 1024.0 0.0
28/10:30pm 7.5 3.0 4.3 80 1.5 NW 17 17 9 9 1023.7 1024.0 0.0
28/10:00pm 6.9 2.7 4.0 82 1.3 NW 15 17 8 9 1023.8 1024.1 0.0
28/09:30pm 7.6 3.4 4.0 78 1.6 NW 15 19 8 10 1023.9 1024.2 0.0
28/09:00pm 8.5 4.4 4.1 74 2.0 NW 15 17 8 9 1024.0 1024.4 0.0
28/08:30pm 7.9 4.6 4.3 78 1.6 NW 11 15 6 8 1024.2 1024.6 0.0
28/08:00pm 8.0 5.1 4.4 78 1.6 NW 9 11 5 6 1024.2 1024.6 0.0
28/07:30pm 8.1 5.2 4.5 78 1.7 NW 9 13 5 7 1024.3 1024.7 0.0
28/07:00pm 8.1 5.1 4.3 77 1.7 NW 9 11 5 6 1024.3 1024.7 0.0
28/06:30pm 8.5 5.5 4.3 75 1.9 NNW 9 13 5 7 1024.1 1024.5 0.0
28/06:00pm 8.8 4.0 4.6 75 1.9 N 19 22 10 12 1023.8 1024.1 0.0
28/05:30pm 8.8 4.4 4.6 75 1.9 NNW 17 20 9 11 1023.6 1023.9 0.0
28/05:00pm 9.9 4.5 4.7 70 2.4 NNW 22 26 12 14 1023.5 1023.8 0.0
28/04:30pm 10.5 4.8 4.9 68 2.6 NNW 24 28 13 15 1023.3 1023.6 0.0
28/04:00pm 10.7 5.3 4.6 66 2.9 NNW 22 28 12 15 1023.3 1023.6 0.0
28/03:30pm 10.7 4.6 4.6 66 2.9 NNW 26 32 14 17 1023.3 1023.6 0.0
28/03:00pm 10.8 4.7 4.7 66 2.9 NNW 26 33 14 18 1023.2 1023.5 0.0
28/02:30pm 10.5 4.4 4.6 67 2.8 NW 26 32 14 17 1023.1 1023.4 0.0
28/02:00pm 10.5 4.1 5.3 70 2.5 NNW 28 37 15 20 1023.3 1023.6 0.0
28/01:30pm 10.5 4.0 4.6 67 2.8 NNW 28 37 15 20 1023.4 1023.7 0.0
28/01:00pm 9.6 3.4 4.2 69 2.5 NNW 26 35 14 19 1023.7 1024.0 0.0
28/12:30pm 9.4 3.5 4.0 69 2.5 NNW 24 30 13 16 1024.1 1024.5 0.0
28/12:00pm 8.8 3.8 3.4 69 2.4 NNW 19 24 10 13 1024.8 1025.1 0.0

Other Formats:

Comma delimited format used in spreadsheet applications
http://www.bom.gov.au/fwo/IDN60801/IDN60801.95747.axf

JavaScript Object Notation format (JSON) in row-major order
http://www.bom.gov.au/fwo/IDN60801/IDN60801.95747.json